Time;durP1;ratioP1;P1;durP2;ratioP2;P2;SDS_P1;SDS_P2;PMS_P1;PMS_P2;Temp;Humidity;BMP_temperature;BMP_pressure;BME280_temperature;BME280_humidity;BME280_pressure;Samples;Min_cycle;Max_cycle;Signal;HPM_P1;HPM_P2
2022/01/14 00:02:05;;;;;;;30.60;16.42;;;-0.70;99.90;;;-1.55;100.00;99162.88;4999035;28;20038;-87
2022/01/14 00:04:31;;;;;;;33.95;16.42;;;-0.70;99.90;;;-1.59;100.00;99157.53;4983761;28;20034;-86
2022/01/14 00:06:57;;;;;;;28.50;16.98;;;-0.70;99.90;;;-1.63;100.00;99148.75;4998982;28;20095;-87
2022/01/14 00:09:23;;;;;;;31.70;16.83;;;-0.70;99.90;;;-1.78;100.00;99117.09;4999359;28;20054;-87
2022/01/14 00:11:57;;;;;;;29.98;16.15;;;-0.70;99.90;;;-1.75;100.00;99118.09;5016147;28;20044;-86
2022/01/14 00:14:38;;;;;;;31.65;15.57;;;-0.70;99.90;;;-1.83;100.00;99106.59;5001702;28;20045;-87
2022/01/14 00:17:13;;;;;;;27.65;15.77;;;-0.70;99.90;;;-1.62;100.00;99134.97;5015995;28;20037;-87
2022/01/14 00:19:42;;;;;;;27.10;15.45;;;-0.70;99.90;;;-1.63;100.00;99135.81;4997104;28;20045;-87
2022/01/14 00:22:13;;;;;;;32.78;16.20;;;-0.70;99.90;;;-1.56;100.00;99147.31;5016342;28;20113;-87
2022/01/14 00:33:05;;;;;;;28.25;15.48;;;-0.70;99.90;;;-1.81;100.00;99111.78;5002151;28;20092;-86
2022/01/14 00:35:32;;;;;;;25.45;15.60;;;-0.70;99.90;;;-1.63;100.00;99132.38;4995659;28;20120;-87
2022/01/14 00:37:58;;;;;;;29.25;15.82;;;-0.70;99.90;;;-1.60;100.00;99140.22;5019375;28;20049;-86
2022/01/14 00:40:24;;;;;;;27.42;14.57;;;-0.70;99.90;;;-1.72;100.00;99122.53;5014000;28;20041;-87
2022/01/14 00:42:51;;;;;;;25.42;14.27;;;-0.70;99.90;;;-1.62;100.00;99142.75;5017522;28;20041;-87
2022/01/14 00:45:17;;;;;;;25.95;14.98;;;-0.70;99.90;;;-1.71;100.00;99118.22;5001346;28;20151;-86
2022/01/14 00:47:44;;;;;;;25.98;14.73;;;-0.70;99.90;;;-1.59;100.00;99136.81;4998742;28;20164;-87
2022/01/14 00:50:13;;;;;;;29.10;14.90;;;-0.70;99.90;;;-1.65;100.00;99126.22;4984858;28;20055;-87
2022/01/14 00:52:41;;;;;;;27.55;14.48;;;-0.70;99.90;;;-1.62;100.00;99132.41;5016345;28;20045;-87
2022/01/14 00:55:12;;;;;;;26.98;14.18;;;-0.70;99.90;;;-1.60;100.00;99127.28;4980751;28;20036;-87
2022/01/14 01:00:26;;;;;;;25.50;13.77;;;-0.70;99.90;;;-1.91;100.00;99076.94;4996823;28;20034;-87
2022/01/14 01:02:52;;;;;;;25.17;13.65;;;-0.70;99.90;;;-1.82;100.00;99107.47;4980080;28;20033;-87
2022/01/14 01:05:19;;;;;;;25.48;14.88;;;-0.70;99.90;;;-1.76;100.00;99112.88;4996455;28;20168;-86
2022/01/14 01:07:56;;;;;;;29.23;14.55;;;-0.70;99.90;;;-1.70;100.00;99112.25;5015909;28;20045;-87
2022/01/14 01:10:23;;;;;;;27.77;15.55;;;-0.70;99.90;;;-1.99;100.00;99073.16;4998714;28;20043;-87
2022/01/14 01:12:54;;;;;;;26.38;15.13;;;-0.70;99.90;;;-1.74;100.00;99116.41;5001180;28;20515;-87
2022/01/14 01:15:21;;;;;;;28.58;15.82;;;-0.70;99.90;;;-1.77;100.00;99103.34;4995541;28;20037;-86
2022/01/14 01:17:47;;;;;;;30.33;16.50;;;-0.70;99.90;;;-1.84;100.00;99089.28;4982025;28;20482;-87
2022/01/14 01:20:18;;;;;;;25.88;15.80;;;-0.70;99.90;;;-1.65;100.00;99123.63;4996454;28;20390;-87
2022/01/14 01:22:48;;;;;;;26.40;15.68;;;-0.70;99.90;;;-1.68;100.00;99126.13;4998460;28;21696;-87
2022/01/14 01:25:17;;;;;;;30.27;15.70;;;-0.70;99.90;;;-1.67;100.00;99127.88;4999078;28;20540;-86
2022/01/14 01:27:45;;;;;;;30.42;16.88;;;-0.70;99.90;;;-1.73;100.00;99119.03;5001516;28;20045;-87
2022/01/14 01:30:16;;;;;;;27.60;15.35;;;-0.70;99.90;;;-1.74;100.00;99111.25;4987717;28;20095;-87
2022/01/14 01:32:47;;;;;;;29.55;16.05;;;-0.70;99.90;;;-1.70;100.00;99115.72;4981879;28;20037;-86
2022/01/14 01:35:15;;;;;;;31.90;15.90;;;-0.70;99.90;;;-1.71;100.00;99120.81;4995077;28;20081;-87
2022/01/14 01:37:41;;;;;;;32.20;16.70;;;-0.70;99.90;;;-1.66;100.00;99121.88;4980792;28;20565;-87
2022/01/14 01:40:08;;;;;;;31.13;16.52;;;-0.80;99.90;;;-1.70;100.00;99118.28;4987844;28;20033;-86
2022/01/14 01:42:34;;;;;;;30.98;16.60;;;-0.70;99.90;;;-1.77;100.00;99104.22;5015065;28;20141;-87
2022/01/14 01:45:00;;;;;;;28.35;14.95;;;-0.80;99.90;;;-1.79;100.00;99105.88;4979205;28;20498;-87
2022/01/14 01:47:27;;;;;;;30.00;15.68;;;-0.80;99.90;;;-1.84;100.00;99091.88;4982764;28;20017;-87
2022/01/14 01:49:53;;;;;;;28.95;15.88;;;-0.80;99.90;;;-1.71;100.00;99126.00;4988003;28;20722;-87
2022/01/14 01:52:19;;;;;;;30.33;15.95;;;-0.80;99.90;;;-1.71;100.00;99126.88;4996273;28;20036;-87
2022/01/14 01:54:45;;;;;;;28.58;14.88;;;-0.80;99.90;;;-1.76;100.00;99120.63;5014166;28;20030;-87
2022/01/14 01:57:11;;;;;;;31.63;15.80;;;-0.80;99.90;;;-1.78;100.00;99122.28;4982766;28;20033;-87
2022/01/14 01:59:36;;;;;;;26.35;14.40;;;-0.80;99.90;;;-1.82;100.00;99107.47;4984511;28;20025;-86
2022/01/14 02:02:03;;;;;;;30.48;16.60;;;-0.80;99.90;;;-1.75;100.00;99122.41;4996324;28;20068;-87
2022/01/14 02:04:30;;;;;;;24.92;14.90;;;-0.80;99.90;;;-1.71;100.00;99120.81;4978503;28;20053;-86
2022/01/14 02:06:57;;;;;;;26.80;14.98;;;-0.80;99.90;;;-1.85;100.00;99102.16;4972691;28;20088;-87
2022/01/14 02:09:24;;;;;;;25.98;14.50;;;-0.90;99.90;;;-1.77;100.00;99121.47;5012137;28;20121;-87
2022/01/14 02:11:49;;;;;;;25.77;14.55;;;-0.80;99.90;;;-1.77;100.00;99113.69;5013483;28;20029;-87
2022/01/14 02:19:43;;;;;;;27.63;15.77;;;-0.90;99.90;;;-1.82;100.00;99108.34;4997211;28;20026;-86
2022/01/14 02:22:13;;;;;;;30.40;15.88;;;-0.90;99.90;;;-1.91;100.00;99092.47;5013630;28;20030;-87
2022/01/14 02:27:12;;;;;;;28.95;15.40;;;-0.90;99.90;;;-1.95;100.00;99100.94;5013138;28;20026;-86
2022/01/14 02:29:38;;;;;;;29.45;16.08;;;-0.90;99.90;;;-1.87;100.00;99101.22;4996669;28;20076;-87
2022/01/14 02:32:05;;;;;;;29.23;15.35;;;-0.90;99.90;;;-1.83;100.00;99110.84;5016377;28;20109;-87
2022/01/14 02:34:31;;;;;;;31.08;15.70;;;-0.90;99.90;;;-2.13;100.00;99055.41;5003887;28;20446;-87
2022/01/14 02:36:57;;;;;;;32.92;16.27;;;-1.00;99.90;;;-2.11;100.00;99064.09;5011774;28;20083;-87
2022/01/14 02:39:23;;;;;;;27.50;16.08;;;-1.00;99.90;;;-2.08;100.00;99057.28;4997939;28;20022;-87
2022/01/14 02:41:52;;;;;;;25.85;16.02;;;-0.90;99.90;;;-2.04;100.00;99051.44;4980835;28;20029;-87
2022/01/14 02:44:26;;;;;;;27.30;15.95;;;-0.90;99.90;;;-1.85;100.00;99084.94;5000553;28;20025;-86
2022/01/14 02:47:03;;;;;;;26.33;15.52;;;-1.00;99.90;;;-2.10;100.00;99041.72;4996548;28;20249;-87
2022/01/14 02:49:31;;;;;;;27.55;15.45;;;-1.00;99.90;;;-1.92;100.00;99076.06;5012580;28;20022;-87
2022/01/14 02:51:59;;;;;;;29.90;15.68;;;-1.00;99.90;;;-1.88;100.00;99073.56;4996818;28;20562;-86
2022/01/14 02:54:33;;;;;;;29.33;16.63;;;-1.00;99.90;;;-2.03;100.00;99050.59;4998800;28;20109;-86
2022/01/14 02:57:02;;;;;;;29.38;16.00;;;-1.00;99.90;;;-1.95;100.00;99064.72;4996843;28;20028;-87
2022/01/14 02:59:29;;;;;;;30.25;15.95;;;-1.00;99.90;;;-1.96;100.00;99058.66;4992074;28;20469;-87
2022/01/14 03:01:57;;;;;;;30.73;16.55;;;-1.00;99.90;;;-1.88;100.00;99071.91;5000375;28;20021;-87
2022/01/14 03:04:23;;;;;;;28.08;16.83;;;-1.00;99.90;;;-1.90;100.00;99073.53;4994866;28;20037;-87
2022/01/14 03:06:49;;;;;;;34.80;16.73;;;-1.00;99.90;;;-2.09;100.00;99035.72;4992919;28;20030;-87
2022/01/14 03:09:15;;;;;;;27.23;15.50;;;-1.00;99.90;;;-1.99;100.00;99048.19;4995016;28;20050;-86
2022/01/14 03:11:50;;;;;;;31.77;16.75;;;-1.00;99.90;;;-2.14;100.00;99026.91;4996749;28;20038;-87
2022/01/14 03:14:25;;;;;;;29.27;16.13;;;-1.00;99.90;;;-2.28;100.00;99000.50;4998427;28;20483;-87
2022/01/14 03:16:53;;;;;;;31.48;16.83;;;-1.00;99.90;;;-1.98;100.00;99055.13;4996312;28;20434;-87
2022/01/14 03:19:23;;;;;;;29.23;16.35;;;-1.00;99.90;;;-2.20;100.00;99017.22;4977870;28;20560;-87
2022/01/14 03:21:52;;;;;;;32.53;16.92;;;-1.10;99.90;;;-2.12;100.00;99027.84;4993323;28;20457;-87
2022/01/14 03:25:47;;;;;;;31.85;16.45;;;-1.10;99.90;;;-2.15;100.00;99018.28;4994241;28;20030;-87
2022/01/14 03:27:07;;;;;;;30.13;16.48;;;-1.00;99.90;;;-2.23;100.00;99005.88;4996034;28;20038;-87
2022/01/14 03:29:32;;;;;;;31.60;16.92;;;-1.10;99.90;;;-2.22;100.00;99005.06;4983271;28;20484;-87
2022/01/14 03:31:58;;;;;;;28.65;17.00;;;-1.00;99.90;;;-2.09;100.00;99029.69;4991049;28;20400;-87
2022/01/14 03:34:24;;;;;;;29.17;16.58;;;-1.10;99.90;;;-2.03;100.00;99030.78;4982452;28;20091;-86
2022/01/14 03:36:51;;;;;;;28.77;16.02;;;-1.10;99.90;;;-1.92;100.00;99044.13;5010768;28;20084;-87
2022/01/14 03:39:17;;;;;;;29.30;16.70;;;-1.10;99.90;;;-2.03;100.00;99029.91;5000978;28;20036;-87
2022/01/14 03:41:43;;;;;;;29.13;16.00;;;-1.00;99.90;;;-2.09;100.00;99027.09;4998872;28;20131;-87
2022/01/14 03:44:09;;;;;;;31.00;16.27;;;-1.00;99.90;;;-2.19;100.00;99015.50;5000858;28;20045;-86
2022/01/14 03:46:35;;;;;;;31.83;16.02;;;-1.00;99.90;;;-2.06;100.00;99034.94;5018400;28;20033;-87
2022/01/14 03:49:00;;;;;;;29.02;16.27;;;-1.00;99.90;;;-1.94;100.00;99046.69;4998081;28;20430;-87
2022/01/14 03:51:28;;;;;;;28.85;16.33;;;-1.00;99.90;;;-1.98;100.00;99042.19;5000093;28;20036;-86
2022/01/14 03:53:54;;;;;;;28.95;16.73;;;-1.00;99.90;;;-2.04;100.00;99023.88;4998698;28;20451;-86
2022/01/14 03:56:22;;;;;;;25.70;15.57;;;-1.00;99.90;;;-1.91;100.00;99043.31;5013269;28;20541;-87
2022/01/14 03:58:48;;;;;;;26.33;15.32;;;-1.00;99.90;;;-2.02;100.00;99021.34;5014210;28;20037;-86
2022/01/14 04:01:14;;;;;;;27.65;15.80;;;-1.00;99.90;;;-1.96;100.00;99029.31;4999609;28;20573;-86
2022/01/14 04:03:42;;;;;;;26.63;15.98;;;-1.00;99.90;;;-1.94;100.00;99033.75;4981559;28;20030;-87
2022/01/14 04:06:10;;;;;;;27.98;15.82;;;-1.00;99.90;;;-1.91;100.00;99035.56;4995974;28;20026;-86
2022/01/14 04:08:36;;;;;;;31.73;16.85;;;-1.00;99.90;;;-2.04;100.00;99010.94;5015382;28;20418;-87
2022/01/14 04:11:03;;;;;;;27.67;15.82;;;-1.00;99.90;;;-2.06;100.00;99010.00;5000435;28;20045;-87
2022/01/14 04:13:46;;;;;;;26.90;15.80;;;-1.00;99.90;;;-1.99;100.00;99018.84;5001396;28;20022;-86
2022/01/14 04:16:13;;;;;;;27.30;15.50;;;-1.00;99.90;;;-2.03;100.00;99017.84;5001494;28;20042;-87
2022/01/14 04:18:39;;;;;;;29.65;16.25;;;-1.00;99.90;;;-1.97;100.00;99017.25;4985116;28;20039;-86
2022/01/14 04:21:05;;;;;;;25.52;15.82;;;-1.00;99.90;;;-1.95;100.00;99020.75;4999613;28;20507;-86
2022/01/14 04:23:31;;;;;;;28.33;16.50;;;-1.00;99.90;;;-2.14;100.00;98985.53;4983881;28;20052;-86
2022/01/14 04:25:57;;;;;;;30.85;16.20;;;-1.00;99.90;;;-1.97;100.00;99015.53;4980541;28;20029;-87
2022/01/14 04:28:30;;;;;;;31.23;16.55;;;-1.10;99.90;;;-1.93;100.00;99004.47;4994305;28;20026;-86
2022/01/14 04:30:56;;;;;;;29.15;16.52;;;-1.00;99.90;;;-2.09;100.00;98983.16;4999004;28;20072;-87
2022/01/14 04:33:25;;;;;;;25.42;15.98;;;-1.00;99.90;;;-2.15;100.00;98970.88;4998001;28;20152;-86
2022/01/14 04:35:52;;;;;;;28.25;15.88;;;-1.00;99.90;;;-2.23;100.00;98943.84;5014068;28;20037;-86
2022/01/14 04:38:18;;;;;;;29.67;16.25;;;-1.00;99.90;;;-2.02;100.00;98983.44;4997899;28;20038;-87
2022/01/14 04:40:43;;;;;;;31.58;16.85;;;-1.00;99.90;;;-2.20;100.00;98954.28;4998494;28;20034;-87
2022/01/14 04:43:09;;;;;;;29.70;16.20;;;-1.00;99.90;;;-1.92;100.00;99000.16;4996471;28;20033;-86
2022/01/14 04:48:08;;;;;;;32.75;16.58;;;-1.10;99.90;;;-2.16;100.00;98962.22;4999569;28;20045;-86
2022/01/14 04:50:34;;;;;;;32.83;16.70;;;-1.00;99.90;;;-1.99;100.00;98990.41;4977023;28;20388;-86
2022/01/14 04:53:01;;;;;;;29.80;16.33;;;-1.10;99.90;;;-2.15;100.00;98969.16;4982036;28;20025;-86
2022/01/14 04:55:27;;;;;;;33.35;16.58;;;-1.00;99.90;;;-2.23;100.00;98960.22;5015699;28;20044;-86
2022/01/14 04:57:55;;;;;;;28.80;16.10;;;-1.00;99.90;;;-1.94;100.00;98996.66;4980449;28;20387;-86
2022/01/14 05:00:24;;;;;;;30.58;16.63;;;-1.10;99.90;;;-2.00;100.00;98984.38;4996393;28;20037;-87
2022/01/14 05:02:54;;;;;;;26.52;15.40;;;-1.00;99.90;;;-2.14;100.00;98967.44;5014377;28;20036;-87
2022/01/14 05:05:24;;;;;;;26.17;16.40;;;-1.00;99.90;;;-1.99;100.00;98996.50;5010974;28;20598;-86
2022/01/14 05:07:52;;;;;;;28.05;15.80;;;-1.00;99.90;;;-1.95;100.00;98993.19;4999321;28;20045;-87
2022/01/14 05:12:51;;;;;;;25.15;14.23;;;-1.00;99.90;;;-1.98;100.00;98999.94;4992379;28;20046;-86
2022/01/14 05:15:19;;;;;;;24.90;15.23;;;-1.10;99.90;;;-1.97;100.00;98996.56;5013037;28;20022;-86
2022/01/14 05:17:46;;;;;;;26.75;15.57;;;-1.00;99.90;;;-2.04;100.00;98986.78;5012409;28;20023;-86
2022/01/14 05:20:14;;;;;;;25.95;15.10;;;-1.10;99.90;;;-2.01;100.00;99003.31;4995740;28;20060;-86
2022/01/14 05:22:40;;;;;;;28.55;15.18;;;-1.10;99.90;;;-2.23;100.00;98973.13;4996013;28;20088;-86
2022/01/14 05:25:08;;;;;;;29.80;16.48;;;-1.10;99.90;;;-2.14;100.00;98986.41;4981394;28;20025;-86
2022/01/14 05:27:35;;;;;;;26.10;14.65;;;-1.10;99.90;;;-2.23;100.00;98967.97;4996862;28;20033;-86
2022/01/14 05:30:05;;;;;;;24.60;14.65;;;-1.10;99.90;;;-2.12;100.00;98992.56;4981329;28;20025;-87
2022/01/14 05:32:31;;;;;;;24.38;13.82;;;-1.10;99.90;;;-2.16;100.00;98982.91;5001006;28;20471;-87
2022/01/14 05:34:56;;;;;;;26.45;14.57;;;-1.10;99.90;;;-2.25;100.00;98967.03;4996972;28;20288;-87
2022/01/14 05:37:22;;;;;;;25.98;14.85;;;-1.10;99.90;;;-2.19;100.00;98982.78;5012637;28;20040;-86
2022/01/14 05:39:48;;;;;;;25.55;14.27;;;-1.10;99.90;;;-2.19;100.00;99000.88;4997370;28;20026;-86
2022/01/14 05:42:14;;;;;;;28.13;14.30;;;-1.10;99.90;;;-2.18;100.00;99006.94;4999968;28;20446;-87
2022/01/14 05:44:40;;;;;;;26.95;14.85;;;-1.20;99.90;;;-2.27;100.00;98985.91;4985767;28;20068;-87
2022/01/14 05:47:06;;;;;;;26.08;14.55;;;-1.20;99.90;;;-2.37;100.00;98984.63;4978124;28;20069;-87
2022/01/14 05:49:32;;;;;;;29.92;15.68;;;-1.30;99.90;;;-2.34;100.00;98977.00;5012209;28;20033;-86
2022/01/14 05:51:58;;;;;;;28.92;14.85;;;-1.30;99.90;;;-2.31;100.00;98995.22;4983256;28;20631;-87
2022/01/14 05:54:24;;;;;;;29.98;15.13;;;-1.30;99.90;;;-2.27;100.00;99001.41;4997015;28;20107;-86
2022/01/14 05:56:50;;;;;;;25.05;15.13;;;-1.30;99.90;;;-2.30;100.00;99009.91;4973472;28;20025;-87
2022/01/14 05:59:16;;;;;;;25.25;14.32;;;-1.40;99.90;;;-2.77;100.00;98933.97;4980615;28;20026;-87
2022/01/14 06:01:43;;;;;;;29.23;15.23;;;-1.40;99.90;;;-2.52;100.00;98965.13;4997171;28;20115;-87
2022/01/14 06:04:09;;;;;;;27.98;15.43;;;-1.40;99.90;;;-2.50;100.00;98960.03;4999501;28;20128;-87
2022/01/14 06:06:35;;;;;;;29.10;14.82;;;-1.40;99.90;;;-2.41;100.00;98982.75;4996931;28;20490;-86
2022/01/14 06:09:03;;;;;;;26.13;14.25;;;-1.40;99.90;;;-2.44;100.00;98964.53;5012595;28;20026;-86
2022/01/14 06:11:28;;;;;;;23.63;13.68;;;-1.40;99.90;;;-2.46;100.00;98958.44;4983539;28;20444;-87
2022/01/14 06:13:54;;;;;;;27.92;13.52;;;-1.40;99.90;;;-2.41;100.00;98960.38;5014887;28;20191;-87
2022/01/14 06:16:20;;;;;;;23.83;13.68;;;-1.40;99.90;;;-2.48;100.00;98942.88;4980467;28;20037;-87
2022/01/14 06:18:46;;;;;;;26.63;15.32;;;-1.40;99.90;;;-2.62;100.00;98934.59;4984528;28;20026;-87
2022/01/14 06:21:12;;;;;;;26.27;14.38;;;-1.40;99.90;;;-2.67;100.00;98909.38;5012933;28;20304;-87
2022/01/14 06:23:38;;;;;;;27.85;14.80;;;-1.40;99.90;;;-2.31;100.00;98965.09;4995745;28;20048;-86
2022/01/14 06:26:04;;;;;;;24.73;14.80;;;-1.40;99.90;;;-2.26;100.00;98979.88;4999801;28;20053;-86
2022/01/14 06:28:30;;;;;;;23.40;14.25;;;-1.40;99.90;;;-2.32;100.00;98957.28;4982240;28;20053;-86
2022/01/14 06:30:56;;;;;;;29.15;15.30;;;-1.40;99.90;;;-2.37;100.00;98956.22;4993696;28;20049;-86
2022/01/14 06:33:22;;;;;;;30.48;14.48;;;-1.40;99.90;;;-2.33;100.00;98955.53;5011928;28;20029;-87
2022/01/14 06:35:49;;;;;;;29.55;15.50;;;-1.30;99.90;;;-2.47;100.00;98930.84;4978628;28;20032;-86
2022/01/14 06:38:17;;;;;;;27.13;15.48;;;-1.30;99.90;;;-2.45;100.00;98937.84;4981509;28;20025;-87
2022/01/14 06:40:43;;;;;;;26.58;15.98;;;-1.40;99.90;;;-2.24;100.00;98973.06;4996565;28;21022;-87
2022/01/14 06:43:08;;;;;;;29.58;15.82;;;-1.30;99.90;;;-2.24;100.00;98960.16;4987163;28;20491;-86
2022/01/14 06:45:34;;;;;;;25.48;15.32;;;-1.40;99.90;;;-2.35;100.00;98944.22;4997059;28;20527;-86
2022/01/14 06:48:00;;;;;;;24.52;14.32;;;-1.30;99.90;;;-2.24;100.00;98968.81;4978258;28;20060;-86
2022/01/14 06:50:26;;;;;;;30.20;15.65;;;-1.30;99.90;;;-2.32;100.00;98954.69;5013775;28;20508;-87
2022/01/14 06:52:52;;;;;;;28.35;14.73;;;-1.30;99.90;;;-2.22;100.00;98977.50;4986693;28;20037;-87
2022/01/14 06:55:18;;;;;;;29.63;15.32;;;-1.30;99.90;;;-2.29;100.00;98962.56;5000809;28;20533;-86
2022/01/14 06:57:44;;;;;;;24.63;15.18;;;-1.30;99.90;;;-2.35;100.00;98954.56;4979616;28;20553;-87
2022/01/14 07:00:13;;;;;;;26.80;15.55;;;-1.30;99.90;;;-2.19;100.00;98985.38;4984254;28;20030;-87
2022/01/14 07:02:40;;;;;;;27.52;15.57;;;-1.30;99.90;;;-2.22;100.00;98979.22;4996016;28;21861;-86
2022/01/14 07:05:07;;;;;;;25.48;15.20;;;-1.20;99.90;;;-2.29;100.00;98972.03;4998706;28;20037;-86
2022/01/14 07:07:33;;;;;;;25.63;15.18;;;-1.20;99.90;;;-2.42;100.00;98968.06;5014044;28;20030;-86
2022/01/14 07:10:00;;;;;;;29.73;16.00;;;-1.30;99.90;;;-2.43;100.00;98987.00;4981830;28;20482;-87
2022/01/14 07:12:29;;;;;;;28.90;16.17;;;-1.30;99.90;;;-2.39;100.00;99009.53;5004231;28;20040;-86
2022/01/14 07:14:56;;;;;;;31.65;16.85;;;-1.30;99.90;;;-2.63;100.00;98997.41;5001210;28;20033;-87
2022/01/14 07:17:23;;;;;;;28.75;15.07;;;-1.40;99.90;;;-2.62;100.00;99004.34;5002053;28;20060;-87
2022/01/14 07:19:52;;;;;;;29.38;15.23;;;-1.40;99.90;;;-2.47;100.00;99039.38;4988948;28;20037;-87
2022/01/14 07:22:18;;;;;;;25.40;14.45;;;-1.50;99.90;;;-2.64;100.00;99003.38;5000868;28;20506;-86
2022/01/14 07:24:45;;;;;;;28.67;14.48;;;-1.50;99.90;;;-2.45;100.00;99046.34;5019118;23;20237;-50
2022/01/14 07:27:12;;;;;;;24.13;13.82;;;-1.50;99.90;;;-2.46;100.00;99041.13;5022678;28;20025;-49
2022/01/14 07:29:38;;;;;;;23.73;13.63;;;-1.50;99.90;;;-2.48;100.00;99029.84;5022060;28;20027;-47
2022/01/14 07:32:04;;;;;;;23.33;13.43;;;-1.50;99.90;;;-2.42;100.00;99040.41;5022957;28;20576;-48
2022/01/14 07:34:31;;;;;;;25.23;13.75;;;-1.50;99.90;;;-2.36;100.00;99048.44;5024628;28;20059;-50
2022/01/14 07:36:56;;;;;;;25.02;14.20;;;-1.40;99.90;;;-2.35;100.00;99047.59;5022327;28;20570;-50
2022/01/14 07:39:23;;;;;;;28.30;14.80;;;-1.40;99.90;;;-2.28;100.00;99044.44;5023519;28;20018;-50
2022/01/14 07:41:50;;;;;;;23.55;14.00;;;-1.40;99.90;;;-2.24;100.00;99046.34;5025391;28;20033;-47
2022/01/14 07:44:15;;;;;;;24.48;13.70;;;-1.30;99.90;;;-2.25;100.00;99042.00;5020779;28;20025;-51
2022/01/14 07:46:42;;;;;;;27.02;14.75;;;-1.30;99.90;;;-2.20;100.00;99048.22;5021679;28;20506;-47
2022/01/14 07:49:08;;;;;;;28.20;14.38;;;-1.30;99.90;;;-2.17;100.00;99045.78;5022844;28;20033;-51
2022/01/14 07:51:34;;;;;;;25.27;13.88;;;-1.20;99.90;;;-2.08;100.00;99058.19;5022212;28;20038;-49
2022/01/14 07:54:05;;;;;;;25.65;14.48;;;-1.20;99.90;;;-2.05;100.00;99047.94;5024322;28;20037;-51
2022/01/14 07:56:36;;;;;;;27.08;14.32;;;-1.10;99.90;;;-1.99;100.00;99042.13;5023367;28;20048;-49
2022/01/14 07:59:04;;;;;;;24.80;14.63;;;-1.10;99.90;;;-1.95;100.00;99051.78;5024408;28;20033;-50
2022/01/14 08:01:33;;;;;;;26.30;13.82;;;-1.00;99.90;;;-1.88;100.00;99048.63;5019814;28;20235;-50
2022/01/14 08:04:04;;;;;;;27.30;13.98;;;-1.00;99.90;;;-1.83;100.00;99044.50;5020408;28;20167;-47
2022/01/14 08:06:32;;;;;;;28.23;13.13;;;-0.90;99.90;;;-2.03;100.00;99002.34;5022770;28;20052;-47
2022/01/14 08:08:58;;;;;;;25.73;12.45;;;-0.90;99.90;;;-1.74;100.00;99036.22;5021779;28;20029;-48
2022/01/14 08:11:23;;;;;;;20.42;12.02;;;-0.90;99.90;;;-1.69;100.00;99042.44;5023227;28;20040;-49
2022/01/14 08:13:49;;;;;;;20.13;11.57;;;-0.80;99.90;;;-1.64;100.00;99040.91;5023113;28;20041;-50
2022/01/14 08:16:15;;;;;;;18.67;11.57;;;-0.70;99.90;;;-1.62;100.00;99036.66;5021627;28;20117;-38
2022/01/14 08:18:41;;;;;;;17.55;11.07;;;-0.70;99.90;;;-1.54;100.00;99043.03;5021459;28;20129;-41
2022/01/14 08:21:07;;;;;;;21.30;11.43;;;-0.60;99.90;;;-1.46;100.00;99042.41;5023838;28;20029;-43
2022/01/14 08:23:33;;;;;;;20.05;10.65;;;-0.50;99.90;;;-1.40;100.00;99042.63;5023128;28;20022;-42
2022/01/14 08:25:58;;;;;;;19.88;11.05;;;-0.50;99.90;;;-1.40;100.00;99040.97;5004295;28;20446;-40
2022/01/14 08:28:25;;;;;;;19.90;11.20;;;-0.50;99.90;;;-1.31;100.00;99047.28;5021462;28;20033;-44
2022/01/14 08:30:52;;;;;;;23.98;11.18;;;-0.40;99.90;;;-1.27;100.00;99044.00;5023550;28;20059;-43
2022/01/14 08:33:18;;;;;;;17.00;10.60;;;-0.30;99.90;;;-1.26;100.00;99038.84;5023234;28;20041;-42
2022/01/14 08:35:45;;;;;;;18.92;11.77;;;-0.30;99.90;;;-1.12;100.00;99047.13;5022463;28;20033;-41
2022/01/14 08:38:11;;;;;;;23.50;13.65;;;-0.30;99.90;;;-1.05;100.00;99046.50;5024044;28;20475;-41
2022/01/14 08:40:37;;;;;;;25.35;14.00;;;-0.20;99.90;;;-0.98;100.00;99051.06;5023174;28;20030;-41
2022/01/14 08:43:04;;;;;;;25.52;14.50;;;-0.10;99.90;;;-0.90;100.00;99046.16;5023173;28;20224;-40
2022/01/14 08:45:30;;;;;;;25.90;14.75;;;0.00;99.90;;;-0.83;100.00;99042.94;5024823;28;20526;-41
2022/01/14 08:47:56;;;;;;;25.15;14.20;;;0.00;99.90;;;-0.80;100.00;99043.06;5023237;28;20025;-42
2022/01/14 08:50:26;;;;;;;25.88;15.65;;;0.10;99.90;;;-0.74;100.00;99047.56;5023784;28;20044;-42
2022/01/14 08:52:52;;;;;;;27.73;15.40;;;0.20;99.90;;;-0.67;100.00;99052.13;5021682;28;20120;-41
2022/01/14 08:55:20;;;;;;;28.30;15.55;;;0.20;99.90;;;-0.62;100.00;99045.41;5023644;28;20025;-40
2022/01/14 08:57:47;;;;;;;28.02;16.13;;;0.30;99.90;;;-0.55;100.00;99043.03;5005291;28;20116;-43
2022/01/14 09:00:16;;;;;;;27.52;15.98;;;0.30;99.90;;;-0.49;100.00;99045.81;5023831;28;20033;-44
2022/01/14 09:02:41;;;;;;;27.45;15.57;;;0.40;99.90;;;-0.43;100.00;99033.94;5021278;28;20025;-44
2022/01/14 09:05:08;;;;;;;28.38;15.68;;;0.40;99.90;;;-0.37;100.00;99035.84;5024421;28;20091;-41
2022/01/14 09:07:35;;;;;;;24.88;15.27;;;0.50;99.90;;;-0.31;100.00;99037.75;5021223;28;20030;-41
2022/01/14 09:10:00;;;;;;;26.73;15.50;;;0.60;99.90;;;-0.24;100.00;99037.13;5024638;28;20035;-42
2022/01/14 09:12:26;;;;;;;28.17;15.57;;;0.60;99.90;;;-0.39;100.00;98996.03;5024637;28;20402;-43
2022/01/14 09:14:52;;;;;;;28.33;15.02;;;0.70;99.90;;;-0.15;100.00;99026.19;5021606;28;20044;-40
2022/01/14 09:17:17;;;;;;;23.55;14.98;;;0.70;99.90;;;-0.11;100.00;99034.09;5022117;28;20037;-39
2022/01/14 09:19:44;;;;;;;25.15;14.25;;;0.80;99.90;;;-0.06;100.00;99023.88;5023970;28;20542;-42
2022/01/14 09:22:15;;;;;;;23.80;14.52;;;0.80;99.90;;;-0.02;100.00;99026.63;5022243;28;20164;-42
2022/01/14 09:24:42;;;;;;;26.88;14.77;;;0.90;99.90;;;0.04;100.00;99038.91;5020882;28;20160;-45
2022/01/14 09:27:09;;;;;;;25.45;13.77;;;1.00;99.90;;;0.06;100.00;99029.44;5024669;28;20065;-42
2022/01/14 09:29:34;;;;;;;25.75;15.43;;;1.00;99.90;;;0.12;100.00;99034.81;5021237;28;20102;-44
2022/01/14 09:32:00;;;;;;;25.05;14.30;;;1.00;99.90;;;0.19;100.00;99033.28;5021604;28;20033;-39
2022/01/14 09:34:26;;;;;;;22.42;13.45;;;1.10;99.90;;;0.24;100.00;99033.44;5023860;28;20581;-41
2022/01/14 09:36:52;;;;;;;27.15;14.80;;;1.10;99.90;;;0.26;100.00;99035.25;5021391;28;20337;-42
2022/01/14 09:39:18;;;;;;;23.42;13.57;;;1.20;99.90;;;0.34;100.00;99032.84;5024022;28;20475;-40
2022/01/14 09:41:45;;;;;;;22.75;14.10;;;1.20;99.90;;;0.42;100.00;99039.19;5022896;28;20048;-42
2022/01/14 09:44:15;;;;;;;23.00;13.85;;;1.30;99.90;;;0.50;100.00;99047.19;5021264;28;20518;-43
2022/01/14 09:46:41;;;;;;;19.40;12.73;;;1.40;99.90;;;0.52;100.00;99041.22;5022259;28;20051;-43
2022/01/14 09:49:06;;;;;;;21.10;12.40;;;1.40;99.90;;;0.61;100.00;99047.50;5022845;28;20021;-44
2022/01/14 09:51:32;;;;;;;21.00;12.27;;;1.50;99.90;;;0.67;100.00;99037.31;5021487;28;20048;-41
2022/01/14 09:53:58;;;;;;;20.83;12.25;;;1.60;99.90;;;0.69;100.00;99033.03;5023021;28;20107;-42
2022/01/14 09:56:24;;;;;;;21.95;11.93;;;1.60;99.90;;;0.78;100.00;99038.47;5021721;28;20033;-41
2022/01/14 09:58:51;;;;;;;22.17;12.23;;;1.70;99.90;;;0.88;100.00;99039.59;5020575;28;20033;-44
2022/01/14 10:01:19;;;;;;;23.33;12.20;;;1.80;99.90;;;0.98;100.00;99039.03;5019689;28;20034;-42
2022/01/14 10:04:01;;;;;;;19.58;12.10;;;1.90;99.90;;;1.09;100.00;99036.72;5020979;28;20116;-43
2022/01/14 10:06:45;;;;;;;17.13;10.68;;;2.00;99.90;;;1.19;100.00;99043.06;5003695;28;20102;-41
2022/01/14 10:09:19;;;;;;;20.08;11.18;;;2.10;99.90;;;1.23;100.00;99037.09;5020653;28;20028;-41
2022/01/14 10:12:02;;;;;;;23.73;11.70;;;2.10;99.90;;;1.29;100.00;99043.34;5005222;28;20025;-40
2022/01/14 10:14:28;;;;;;;22.20;11.73;;;2.20;99.90;;;1.36;100.00;99030.50;5019963;28;20496;-42
2022/01/14 10:17:00;;;;;;;18.52;11.48;;;2.20;99.90;;;1.42;100.00;99034.13;5021434;28;20033;-42
2022/01/14 10:19:30;;;;;;;19.38;11.13;;;2.30;99.90;;;1.47;100.00;99029.94;5021378;28;20189;-43
2022/01/14 10:21:57;;;;;;;19.50;11.05;;;2.30;99.90;;;1.57;100.00;99036.25;5021649;28;20048;-43
2022/01/14 10:24:27;;;;;;;17.30;10.63;;;2.40;99.90;;;1.62;100.00;99029.44;5021061;28;20463;-40
2022/01/14 10:29:39;;;;;;;21.15;11.40;;;2.60;99.90;;;1.80;100.00;99028.13;5017691;28;20463;-49